Time;durP1;ratioP1;P1;durP2;ratioP2;P2;SDS_P1;SDS_P2;PMS_P1;PMS_P2;Temp;Humidity;BMP_temperature;BMP_pressure;BME280_temperature;BME280_humidity;BME280_pressure;Samples;Min_cycle;Max_cycle;Signal;HPM_P1;HPM_P2
2021/12/11 00:00:12;;;;;;;;;;;;;;;19.59;45.70;99584.66;2091662;28;20457;-68
2021/12/11 00:01:18;;;;;;;;;;;;;;;19.55;45.82;99580.59;2089994;28;19918;-68
2021/12/11 00:02:20;;;;;;;;;;;;;;;19.52;45.94;99586.34;2091394;28;19920;-68
2021/12/11 00:03:32;;;;;;;;;;;;;;;19.52;46.12;99589.09;2087282;28;19927;-68
2021/12/11 00:04:37;;;;;;;;;;;;;;;19.51;46.08;99581.06;2087819;28;19924;-68
2021/12/11 00:05:37;;;;;;;;;;;;;;;19.48;46.20;99577.63;2090299;28;19993;-68
2021/12/11 00:06:58;;;;;;;;;;;;;;;19.48;46.28;99569.44;2091339;28;19916;-68
2021/12/11 00:07:59;;;;;;;;;;;;;;;19.47;46.33;99575.06;2089475;28;19928;-68
2021/12/11 00:09:02;;;;;;;;;;;;;;;19.46;46.32;99573.34;2090298;28;19999;-68
2021/12/11 00:10:05;;;;;;;;;;;;;;;19.45;46.38;99575.25;2090125;28;19919;-68
2021/12/11 00:11:06;;;;;;;;;;;;;;;19.44;46.42;99569.94;2089832;28;19951;-68
2021/12/11 00:12:26;;;;;;;;;;;;;;;19.44;46.46;99573.50;2091142;28;19930;-67
2021/12/11 00:13:28;;;;;;;;;;;;;;;19.44;46.52;99572.66;2090071;28;20915;-68
2021/12/11 00:14:31;;;;;;;;;;;;;;;19.43;46.53;99573.69;2090872;28;20013;-69
2021/12/11 00:15:32;;;;;;;;;;;;;;;19.43;46.56;99580.00;2090279;28;19920;-68
2021/12/11 00:16:35;;;;;;;;;;;;;;;19.43;46.44;99584.63;2082637;28;20469;-66
2021/12/11 00:17:35;;;;;;;;;;;;;;;19.42;46.45;99582.91;2084079;28;19925;-67
2021/12/11 00:18:36;;;;;;;;;;;;;;;19.38;46.57;99574.19;2080542;28;19920;-70
2021/12/11 00:19:37;;;;;;;;;;;;;;;19.36;46.60;99580.84;2082916;28;19913;-67
2021/12/11 00:20:40;;;;;;;;;;;;;;;19.34;46.60;99580.16;2094681;28;20347;-67
2021/12/11 00:21:41;;;;;;;;;;;;;;;19.32;46.61;99593.09;2092510;28;20471;-67
2021/12/11 00:22:43;;;;;;;;;;;;;;;19.32;46.72;99587.66;2090155;28;19924;-67
2021/12/11 00:23:52;;;;;;;;;;;;;;;19.30;46.80;99589.69;2091878;28;19912;-67
2021/12/11 00:24:57;;;;;;;;;;;;;;;19.29;46.81;99594.28;2088779;28;20444;-67
2021/12/11 00:25:57;;;;;;;;;;;;;;;19.26;46.82;99590.00;2090281;28;19926;-67
2021/12/11 00:27:02;;;;;;;;;;;;;;;19.25;46.86;99588.28;2091251;28;19916;-67
2021/12/11 00:28:04;;;;;;;;;;;;;;;19.25;46.79;99581.97;2088368;28;19924;-67
2021/12/11 00:29:06;;;;;;;;;;;;;;;19.24;46.79;99581.13;2090031;28;19920;-67
2021/12/11 00:30:10;;;;;;;;;;;;;;;19.22;46.88;99577.69;2088871;28;19926;-68
2021/12/11 00:31:10;;;;;;;;;;;;;;;19.23;46.88;99595.81;2091303;28;19927;-68
2021/12/11 00:32:13;;;;;;;;;;;;;;;19.23;46.92;99590.34;2091446;28;19927;-67
2021/12/11 00:33:16;;;;;;;;;;;;;;;19.23;46.83;99595.81;2091901;28;19923;-68
2021/12/11 00:34:18;;;;;;;;;;;;;;;19.21;46.88;99595.13;2089130;28;20126;-68
2021/12/11 00:35:20;;;;;;;;;;;;;;;19.22;46.92;99596.81;2092180;28;20143;-68
2021/12/11 00:36:22;;;;;;;;;;;;;;;19.23;46.93;99594.94;2091431;28;19970;-68
2021/12/11 00:37:24;;;;;;;;;;;;;;;19.23;47.03;99598.53;2090657;28;19965;-68
2021/12/11 00:38:34;;;;;;;;;;;;;;;19.24;46.86;99602.97;2090968;28;19959;-68
2021/12/11 00:39:42;;;;;;;;;;;;;;;19.24;46.92;99599.41;2090082;28;19920;-68
2021/12/11 00:40:44;;;;;;;;;;;;;;;19.24;46.87;99602.97;2090363;28;19920;-68
2021/12/11 00:41:50;;;;;;;;;;;;;;;19.25;46.92;99601.94;2083464;28;20011;-68
2021/12/11 00:42:52;;;;;;;;;;;;;;;19.26;46.84;99611.03;2078846;28;19960;-68
2021/12/11 00:43:53;;;;;;;;;;;;;;;19.26;46.78;99605.56;2090903;28;19961;-68
2021/12/11 00:44:55;;;;;;;;;;;;;;;19.25;46.79;99610.13;2091165;28;19920;-68
2021/12/11 00:45:57;;;;;;;;;;;;;;;19.27;46.67;99616.31;2090365;28;19985;-68
2021/12/11 00:47:11;;;;;;;;;;;;;;;19.28;46.64;99614.47;2092686;28;19927;-68
2021/12/11 00:48:13;;;;;;;;;;;;;;;19.31;46.76;99618.75;2091791;28;19924;-68
2021/12/11 00:49:18;;;;;;;;;;;;;;;19.30;46.79;99615.13;2089604;28;19927;-68
2021/12/11 00:50:20;;;;;;;;;;;;;;;19.32;46.70;99614.97;2091580;28;19973;-68
2021/12/11 00:51:22;;;;;;;;;;;;;;;19.34;46.69;99618.41;2090811;28;19969;-68
2021/12/11 00:52:31;;;;;;;;;;;;;;;19.35;46.68;99617.38;2091134;28;19978;-68
2021/12/11 00:53:36;;;;;;;;;;;;;;;19.36;46.67;99616.38;2088444;28;19920;-68
2021/12/11 00:54:41;;;;;;;;;;;;;;;19.35;46.55;99617.38;2090037;28;19973;-68
2021/12/11 00:55:45;;;;;;;;;;;;;;;19.38;46.66;99625.25;2087153;28;20010;-68
2021/12/11 00:56:47;;;;;;;;;;;;;;;19.38;46.60;99619.81;2092142;28;19920;-68
2021/12/11 00:57:48;;;;;;;;;;;;;;;19.39;46.53;99630.56;2090844;28;19931;-68
2021/12/11 00:58:50;;;;;;;;;;;;;;;19.40;46.54;99631.41;2087753;28;20268;-68
2021/12/11 01:00:12;;;;;;;;;;;;;;;19.40;46.44;99624.09;2082886;28;19927;-68
2021/12/11 01:01:15;;;;;;;;;;;;;;;19.41;46.51;99627.66;2084604;28;19927;-68
2021/12/11 01:02:15;;;;;;;;;;;;;;;19.43;46.45;99625.63;2089484;28;19924;-68
2021/12/11 01:03:19;;;;;;;;;;;;;;;19.44;46.53;99632.78;2092423;28;19916;-68
2021/12/11 01:04:27;;;;;;;;;;;;;;;19.44;46.48;99624.59;2090856;28;19924;-68
2021/12/11 01:05:32;;;;;;;;;;;;;;;19.46;46.44;99633.50;2089213;28;19924;-68
2021/12/11 01:06:35;;;;;;;;;;;;;;;19.46;46.54;99631.63;2091073;28;19920;-68
2021/12/11 01:07:37;;;;;;;;;;;;;;;19.47;46.43;99641.50;2092066;28;20012;-68
2021/12/11 01:08:39;;;;;;;;;;;;;;;19.48;46.33;99629.56;2091254;28;19912;-68
2021/12/11 01:09:41;;;;;;;;;;;;;;;19.49;46.32;99636.75;2093243;28;20376;-68
2021/12/11 01:10:42;;;;;;;;;;;;;;;19.50;46.40;99634.91;2091932;28;20307;-68
2021/12/11 01:11:43;;;;;;;;;;;;;;;19.51;46.42;99639.31;2092333;28;19916;-68
2021/12/11 01:12:53;;;;;;;;;;;;;;;19.53;46.31;99640.03;2093651;28;20172;-69
2021/12/11 01:14:11;;;;;;;;;;;;;;;19.54;46.24;99644.47;2093146;28;20773;-68
2021/12/11 01:15:26;;;;;;;;;;;;;;;19.55;46.33;99635.25;2082433;28;19924;-68
2021/12/11 01:16:27;;;;;;;;;;;;;;;19.57;46.25;99641.38;2082227;28;20897;-68
2021/12/11 01:19:00;;;;;;;;;;;;;;;19.59;46.21;99644.81;2060257;28;19928;-68
2021/12/11 01:20:01;;;;;;;;;;;;;;;19.60;46.17;99642.94;2088448;28;19912;-68
2021/12/11 01:21:12;;;;;;;;;;;;;;;19.62;46.15;99644.50;2090145;28;20015;-68
2021/12/11 01:22:35;;;;;;;;;;;;;;;19.64;46.13;99647.91;2087960;28;20012;-69
2021/12/11 01:24:44;;;;;;;;;;;;;;;19.66;46.35;99656.81;2093030;28;19920;-68
2021/12/11 01:25:45;;;;;;;;;;;;;;;19.67;45.96;99658.59;2093259;28;20383;-68
2021/12/11 01:26:50;;;;;;;;;;;;;;;19.69;46.02;99661.97;2093540;28;20673;-68
2021/12/11 01:27:52;;;;;;;;;;;;;;;19.69;45.94;99672.91;2093449;28;19940;-68
2021/12/11 01:28:52;;;;;;;;;;;;;;;19.71;45.95;99664.56;2093307;28;19924;-68
2021/12/11 01:29:56;;;;;;;;;;;;;;;19.72;45.82;99668.16;2090778;28;19954;-68
2021/12/11 01:30:57;;;;;;;;;;;;;;;19.74;45.94;99668.84;2093475;28;19924;-68
2021/12/11 01:31:58;;;;;;;;;;;;;;;19.75;45.84;99670.56;2092761;28;19955;-68
2021/12/11 01:32:59;;;;;;;;;;;;;;;19.74;45.98;99666.97;2093028;28;19950;-68
2021/12/11 01:34:00;;;;;;;;;;;;;;;19.76;45.88;99672.28;2092020;28;19924;-68
2021/12/11 01:35:01;;;;;;;;;;;;;;;19.76;45.77;99672.28;2084626;28;19920;-68
2021/12/11 01:36:02;;;;;;;;;;;;;;;19.77;45.74;99671.25;2083813;28;19924;-68
2021/12/11 01:37:03;;;;;;;;;;;;;;;19.78;45.88;99672.97;2093997;28;20505;-68
2021/12/11 01:38:08;;;;;;;;;;;;;;;19.79;45.81;99671.94;2087346;28;20311;-68
2021/12/11 01:39:15;;;;;;;;;;;;;;;19.80;45.79;99670.94;2091132;28;19924;-68
2021/12/11 01:40:18;;;;;;;;;;;;;;;19.80;45.79;99668.19;2091772;28;19916;-68
2021/12/11 01:41:20;;;;;;;;;;;;;;;19.81;45.75;99673.50;2093379;28;19920;-68
2021/12/11 01:42:31;;;;;;;;;;;;;;;19.81;45.70;99675.38;2092410;28;19924;-68
2021/12/11 01:43:32;;;;;;;;;;;;;;;19.83;45.59;99678.81;2093478;28;20555;-68
2021/12/11 01:44:34;;;;;;;;;;;;;;;19.83;45.64;99682.38;2093276;28;19916;-68
2021/12/11 01:45:35;;;;;;;;;;;;;;;19.84;45.74;99689.59;2093226;28;20769;-68
2021/12/11 01:46:36;;;;;;;;;;;;;;;19.84;45.66;99695.06;2093162;28;19927;-68
2021/12/11 01:47:38;;;;;;;;;;;;;;;19.85;45.55;99693.19;2092304;28;19974;-68
2021/12/11 01:48:43;;;;;;;;;;;;;;;19.86;45.69;99695.72;2092564;28;19924;-68
2021/12/11 01:49:45;;;;;;;;;;;;;;;19.86;45.57;99693.00;2092214;28;19920;-68
2021/12/11 01:50:48;;;;;;;;;;;;;;;19.87;45.68;99702.09;2092424;28;20001;-68
2021/12/11 01:52:00;;;;;;;;;;;;;;;19.87;45.57;99702.94;2091470;28;19919;-69
2021/12/11 01:53:06;;;;;;;;;;;;;;;19.88;45.56;99703.78;2092782;28;19920;-68
2021/12/11 01:54:18;;;;;;;;;;;;;;;19.89;45.56;99706.38;2089709;28;19946;-68
2021/12/11 01:55:22;;;;;;;;;;;;;;;19.90;45.59;99707.22;2092483;28;19969;-68
2021/12/11 01:56:24;;;;;;;;;;;;;;;19.91;45.54;99703.44;2093381;28;19916;-68
2021/12/11 01:57:26;;;;;;;;;;;;;;;19.92;45.58;99705.19;2093477;28;19931;-68
2021/12/11 01:58:29;;;;;;;;;;;;;;;19.94;45.61;99697.63;2092924;28;19912;-68
2021/12/11 01:59:36;;;;;;;;;;;;;;;19.95;45.46;99713.03;2090468;28;19950;-68
2021/12/11 02:00:39;;;;;;;;;;;;;;;19.94;45.51;99708.56;2090578;28;19916;-68
2021/12/11 02:01:54;;;;;;;;;;;;;;;19.97;45.57;99712.91;2091322;28;20694;-68
2021/12/11 02:02:56;;;;;;;;;;;;;;;19.96;45.60;99712.00;2093023;28;20333;-68
2021/12/11 02:03:57;;;;;;;;;;;;;;;19.98;45.45;99714.59;2092735;28;19953;-68
2021/12/11 02:04:58;;;;;;;;;;;;;;;19.97;45.58;99713.75;2092166;28;19912;-68
2021/12/11 02:05:59;;;;;;;;;;;;;;;19.98;45.53;99712.72;2092471;28;20019;-69
2021/12/11 02:07:01;;;;;;;;;;;;;;;19.98;45.57;99709.13;2084070;28;19928;-68
2021/12/11 02:08:04;;;;;;;;;;;;;;;19.97;45.61;99705.53;2083216;28;20761;-68
2021/12/11 02:09:19;;;;;;;;;;;;;;;20.00;45.57;99712.56;2094540;28;19916;-68
2021/12/11 02:10:22;;;;;;;;;;;;;;;20.01;45.55;99709.63;2091221;28;19943;-68
2021/12/11 02:11:24;;;;;;;;;;;;;;;20.00;45.52;99716.13;2092625;28;19920;-68
2021/12/11 02:12:38;;;;;;;;;;;;;;;19.99;45.52;99714.44;2098009;28;19935;-68
2021/12/11 02:13:45;;;;;;;;;;;;;;;20.01;45.62;99719.72;2093412;28;19924;-68
2021/12/11 02:14:49;;;;;;;;;;;;;;;20.01;45.55;99714.25;2091782;28;19912;-68
2021/12/11 02:15:52;;;;;;;;;;;;;;;20.02;45.60;99705.91;2092533;28;20022;-69
2021/12/11 02:16:55;;;;;;;;;;;;;;;20.02;45.60;99719.56;2093140;28;20409;-68
2021/12/11 02:18:11;;;;;;;;;;;;;;;20.02;45.45;99719.56;2092563;28;19963;-68
2021/12/11 02:19:14;;;;;;;;;;;;;;;20.02;45.50;99721.47;2089929;28;19927;-68
2021/12/11 02:20:19;;;;;;;;;;;;;;;20.02;45.58;99726.94;2092773;28;19917;-68
2021/12/11 02:21:26;;;;;;;;;;;;;;;20.01;45.56;99715.09;2091150;28;19920;-68
2021/12/11 02:22:28;;;;;;;;;;;;;;;20.00;45.60;99723.50;2092126;28;19920;-68
2021/12/11 02:23:29;;;;;;;;;;;;;;;20.00;45.65;99726.25;2092710;28;20019;-68
2021/12/11 02:24:34;;;;;;;;;;;;;;;20.00;45.56;99727.09;2092591;28;20550;-68
2021/12/11 02:25:38;;;;;;;;;;;;;;;20.01;45.62;99730.66;2092371;28;19924;-68
2021/12/11 02:26:39;;;;;;;;;;;;;;;20.00;45.60;99726.25;2075729;28;19921;-68
2021/12/11 02:27:42;;;;;;;;;;;;;;;20.00;45.66;99727.09;2078990;28;19964;-68
2021/12/11 02:28:45;;;;;;;;;;;;;;;20.00;45.56;99735.28;2091475;28;19961;-68
2021/12/11 02:29:57;;;;;;;;;;;;;;;20.00;45.71;99729.81;2093654;28;19917;-68
2021/12/11 02:31:04;;;;;;;;;;;;;;;19.99;45.53;99727.25;2090256;28;19928;-68
2021/12/11 02:32:12;;;;;;;;;;;;;;;19.98;45.65;99729.13;2092143;28;20034;-68
2021/12/11 02:33:18;;;;;;;;;;;;;;;19.99;45.57;99722.66;2093749;28;20397;-68
2021/12/11 02:34:18;;;;;;;;;;;;;;;19.98;45.68;99720.91;2092607;28;20239;-68
2021/12/11 02:35:23;;;;;;;;;;;;;;;19.97;45.70;99721.94;2092602;28;19919;-68
2021/12/11 02:36:29;;;;;;;;;;;;;;;19.98;45.65;99728.28;2091530;28;19990;-69
2021/12/11 02:37:39;;;;;;;;;;;;;;;19.98;45.59;99731.00;2091940;28;19920;-68
2021/12/11 02:38:39;;;;;;;;;;;;;;;19.96;45.66;99736.63;2091095;28;20558;-67
2021/12/11 02:39:44;;;;;;;;;;;;;;;19.97;45.65;99741.09;2091330;28;20682;-69
2021/12/11 02:40:48;;;;;;;;;;;;;;;19.96;45.61;99730.31;2093520;28;19959;-68
2021/12/11 02:42:00;;;;;;;;;;;;;;;19.96;45.82;99736.63;2092846;28;19922;-68
2021/12/11 02:43:26;;;;;;;;;;;;;;;19.95;45.82;99734.94;2089885;28;20441;-68
2021/12/11 02:44:29;;;;;;;;;;;;;;;19.96;45.84;99735.78;2086510;28;19955;-68
2021/12/11 02:45:36;;;;;;;;;;;;;;;19.95;45.80;99732.19;2092308;28;19920;-68
2021/12/11 02:46:42;;;;;;;;;;;;;;;19.94;45.87;99737.81;2091434;28;20022;-68
2021/12/11 02:47:45;;;;;;;;;;;;;;;19.95;45.83;99740.41;2091570;28;19916;-68
2021/12/11 02:49:06;;;;;;;;;;;;;;;19.94;45.88;99746.88;2089112;28;19961;-68
2021/12/11 02:50:06;;;;;;;;;;;;;;;19.93;45.80;99742.44;2086318;28;19924;-68
2021/12/11 02:51:18;;;;;;;;;;;;;;;19.92;45.97;99738.84;2092802;28;19959;-68
2021/12/11 02:52:31;;;;;;;;;;;;;;;19.91;45.80;99745.31;2092925;28;21721;-68
2021/12/11 02:53:33;;;;;;;;;;;;;;;19.91;45.98;99741.75;2091277;28;19912;-68
2021/12/11 02:54:37;;;;;;;;;;;;;;;19.91;45.72;99742.59;2089854;28;19904;-68
2021/12/11 02:55:46;;;;;;;;;;;;;;;19.90;45.87;99740.03;2091531;28;20173;-68
2021/12/11 02:56:49;;;;;;;;;;;;;;;19.90;45.88;99729.09;2092170;28;19919;-68
2021/12/11 02:57:51;;;;;;;;;;;;;;;19.90;46.07;99740.03;2083574;28;19928;-68
2021/12/11 02:58:54;;;;;;;;;;;;;;;19.89;46.02;99743.78;2084994;28;20393;-68
2021/12/11 02:59:54;;;;;;;;;;;;;;;19.90;45.97;99742.78;2090906;28;19916;-68
2021/12/11 03:00:57;;;;;;;;;;;;;;;19.88;46.03;99742.06;2092397;28;19961;-68
2021/12/11 03:02:02;;;;;;;;;;;;;;;19.88;46.01;99736.59;2091828;28;20048;-68
2021/12/11 03:03:06;;;;;;;;;;;;;;;19.87;45.93;99740.38;2091905;28;20384;-67
2021/12/11 03:04:16;;;;;;;;;;;;;;;19.87;46.04;99741.22;2083754;28;19960;-68
2021/12/11 03:05:21;;;;;;;;;;;;;;;19.87;46.03;99740.38;2084698;28;20367;-68
2021/12/11 03:06:25;;;;;;;;;;;;;;;19.87;46.04;99734.91;2090757;28;19956;-68
2021/12/11 03:07:36;;;;;;;;;;;;;;;19.87;46.00;99734.91;2089970;28;19947;-68
2021/12/11 03:08:37;;;;;;;;;;;;;;;19.85;46.02;99737.78;2094334;28;19912;-68
2021/12/11 03:09:38;;;;;;;;;;;;;;;19.86;46.08;99735.91;2091346;28;20008;-68
2021/12/11 03:10:43;;;;;;;;;;;;;;;19.85;46.11;99736.94;2092369;28;20183;-68
2021/12/11 03:11:44;;;;;;;;;;;;;;;19.84;46.23;99738.81;2092663;28;19924;-68
2021/12/11 03:12:45;;;;;;;;;;;;;;;19.84;46.14;99741.56;2091772;28;19975;-68
2021/12/11 03:13:50;;;;;;;;;;;;;;;19.84;46.10;99740.69;2091696;28;19920;-68
2021/12/11 03:14:51;;;;;;;;;;;;;;;19.84;46.10;99743.41;2092303;28;19967;-68
2021/12/11 03:15:51;;;;;;;;;;;;;;;19.83;46.10;99739.81;2092867;28;19916;-67
2021/12/11 03:16:52;;;;;;;;;;;;;;;19.83;46.15;99744.44;2084664;28;19951;-68
2021/12/11 03:17:53;;;;;;;;;;;;;;;19.83;46.08;99744.44;2081727;28;19931;-68
2021/12/11 03:18:54;;;;;;;;;;;;;;;19.82;46.16;99742.72;2091533;28;19912;-68
2021/12/11 03:19:54;;;;;;;;;;;;;;;19.82;46.23;99748.19;2083365;28;20404;-68
2021/12/11 03:20:55;;;;;;;;;;;;;;;19.82;46.20;99748.19;2083907;28;19931;-68
2021/12/11 03:21:56;;;;;;;;;;;;;;;19.81;46.22;99746.47;2089395;28;20687;-68
2021/12/11 03:22:56;;;;;;;;;;;;;;;19.81;46.26;99749.22;2082885;28;19920;-68
2021/12/11 03:23:57;;;;;;;;;;;;;;;19.80;46.10;99751.09;2080524;28;19928;-67
2021/12/11 03:24:58;;;;;;;;;;;;;;;19.80;46.23;99751.09;2092608;28;19947;-68
2021/12/11 03:25:58;;;;;;;;;;;;;;;19.81;46.27;99749.22;2091843;28;19913;-68
2021/12/11 03:26:59;;;;;;;;;;;;;;;19.80;46.20;99753.84;2091728;28;19919;-68
2021/12/11 03:27:59;;;;;;;;;;;;;;;19.81;46.26;99757.44;2091753;28;20009;-68
2021/12/11 03:28:59;;;;;;;;;;;;;;;19.80;46.17;99755.72;2091139;28;19924;-67
2021/12/11 03:30:00;;;;;;;;;;;;;;;19.79;46.23;99748.53;2092177;28;19912;-67
2021/12/11 03:31:02;;;;;;;;;;;;;;;19.79;46.25;99754.00;2092037;28;19974;-67
2021/12/11 03:32:05;;;;;;;;;;;;;;;19.79;46.30;99759.47;2091928;28;20018;-67
2021/12/11 03:33:07;;;;;;;;;;;;;;;19.79;46.12;99762.19;2092502;28;20385;-68
2021/12/11 03:34:10;;;;;;;;;;;;;;;19.79;46.26;99764.94;2090710;28;19986;-67
2021/12/11 03:35:11;;;;;;;;;;;;;;;19.78;46.32;99757.75;2091598;28;19920;-68
2021/12/11 03:36:13;;;;;;;;;;;;;;;19.78;46.23;99755.03;2091272;28;19970;-68
2021/12/11 03:37:14;;;;;;;;;;;;;;;19.79;46.38;99748.53;2089972;28;19931;-68
2021/12/11 03:38:15;;;;;;;;;;;;;;;19.78;46.12;99757.75;2088805;28;20000;-67
2021/12/11 03:39:27;;;;;;;;;;;;;;;19.78;46.35;99763.22;2089662;28;20439;-68
2021/12/11 03:40:28;;;;;;;;;;;;;;;19.78;46.23;99768.69;2090099;28;19941;-68
2021/12/11 03:41:30;;;;;;;;;;;;;;;19.77;46.30;99766.97;2092236;28;19993;-68
2021/12/11 03:42:34;;;;;;;;;;;;;;;19.77;46.25;99766.97;2090425;28;19908;-68
2021/12/11 03:43:35;;;;;;;;;;;;;;;19.77;46.24;99766.97;2089763;28;19920;-68
2021/12/11 03:44:35;;;;;;;;;;;;;;;19.76;46.45;99763.38;2082532;28;19920;-67
2021/12/11 03:45:37;;;;;;;;;;;;;;;19.75;46.35;99764.41;2081923;28;20444;-67
2021/12/11 03:46:38;;;;;;;;;;;;;;;19.75;46.33;99769.03;2093220;28;19973;-68
2021/12/11 03:47:41;;;;;;;;;;;;;;;19.74;46.31;99767.28;2090934;28;19998;-67
2021/12/11 03:48:41;;;;;;;;;;;;;;;19.74;46.37;99775.50;2091870;28;20796;-68
2021/12/11 03:49:42;;;;;;;;;;;;;;;19.73;46.40;99771.91;2092217;28;20201;-67
2021/12/11 03:50:43;;;;;;;;;;;;;;;19.73;46.46;99762.84;2091281;28;19972;-67
2021/12/11 03:51:46;;;;;;;;;;;;;;;19.74;46.43;99764.56;2091855;28;19920;-67
2021/12/11 03:52:47;;;;;;;;;;;;;;;19.73;46.43;99771.91;2091117;28;19924;-67
2021/12/11 03:53:47;;;;;;;;;;;;;;;19.73;46.38;99762.84;2088307;28;19920;-68
2021/12/11 03:54:50;;;;;;;;;;;;;;;19.72;46.47;99769.31;2088021;28;19919;-67
2021/12/11 03:55:53;;;;;;;;;;;;;;;19.72;46.55;99774.78;2092571;28;20810;-68
2021/12/11 03:56:54;;;;;;;;;;;;;;;19.71;46.43;99771.22;2090760;28;19965;-68
2021/12/11 03:57:59;;;;;;;;;;;;;;;19.70;46.50;99781.31;2093023;28;19981;-68
2021/12/11 03:59:00;;;;;;;;;;;;;;;19.72;46.53;99777.53;2091222;28;19912;-68
2021/12/11 04:00:01;;;;;;;;;;;;;;;19.71;46.52;99779.41;2090167;28;20402;-67
2021/12/11 04:01:01;;;;;;;;;;;;;;;19.69;46.69;99779.56;2092224;28;20259;-67
2021/12/11 04:02:05;;;;;;;;;;;;;;;19.70;46.44;99788.66;2091334;28;19912;-68
2021/12/11 04:03:07;;;;;;;;;;;;;;;19.69;46.50;99795.13;2091363;28;19920;-68
2021/12/11 04:04:14;;;;;;;;;;;;;;;19.70;46.60;99803.19;2078618;28;20119;-68
2021/12/11 04:05:15;;;;;;;;;;;;;;;19.70;46.48;99797.72;2074969;28;19920;-68
2021/12/11 04:06:16;;;;;;;;;;;;;;;19.70;46.54;99805.06;2083933;28;19960;-67
2021/12/11 04:07:18;;;;;;;;;;;;;;;19.69;46.48;99798.72;2083599;28;19928;-68
2021/12/11 04:08:20;;;;;;;;;;;;;;;19.69;46.59;99803.31;2081602;28;20379;-68
2021/12/11 04:09:21;;;;;;;;;;;;;;;19.68;46.71;99807.94;2080159;28;19966;-68
2021/12/11 04:10:21;;;;;;;;;;;;;;;19.68;46.64;99805.22;2083696;28;19970;-68
2021/12/11 04:11:24;;;;;;;;;;;;;;;19.67;46.59;99814.44;2082190;28;20094;-68
2021/12/11 04:12:26;;;;;;;;;;;;;;;19.66;46.56;99818.16;2079715;28;19928;-68
2021/12/11 04:13:26;;;;;;;;;;;;;;;19.66;46.63;99812.69;2085194;28;19919;-68
2021/12/11 04:14:28;;;;;;;;;;;;;;;19.66;46.62;99811.81;2082456;28;22013;-68
2021/12/11 04:15:29;;;;;;;;;;;;;;;19.66;46.60;99820.88;2082584;28;20448;-68
2021/12/11 04:16:29;;;;;;;;;;;;;;;19.65;46.79;99810.97;2082139;28;19916;-68
2021/12/11 04:17:30;;;;;;;;;;;;;;;19.65;46.62;99819.19;2083723;28;19916;-68
2021/12/11 04:18:30;;;;;;;;;;;;;;;19.66;46.67;99826.34;2083655;28;19912;-68
2021/12/11 04:19:31;;;;;;;;;;;;;;;19.64;46.59;99822.91;2082671;28;19974;-68
2021/12/11 04:20:33;;;;;;;;;;;;;;;19.64;46.64;99817.44;2083228;28;19931;-68
2021/12/11 04:21:34;;;;;;;;;;;;;;;19.63;46.65;99823.94;2083724;28;19916;-68
2021/12/11 04:22:34;;;;;;;;;;;;;;;19.63;46.71;99825.81;2083721;28;19924;-68
2021/12/11 04:23:35;;;;;;;;;;;;;;;19.64;46.69;99833.84;2083161;28;19925;-68
2021/12/11 04:24:36;;;;;;;;;;;;;;;19.63;46.72;99837.63;2083702;28;20540;-68
2021/12/11 04:25:37;;;;;;;;;;;;;;;19.63;46.70;99837.63;2081462;28;19924;-68
2021/12/11 04:26:38;;;;;;;;;;;;;;;19.64;46.77;99846.66;2085131;28;19920;-68
2021/12/11 04:27:39;;;;;;;;;;;;;;;19.62;46.71;99846.84;2082476;28;19931;-68
2021/12/11 04:28:40;;;;;;;;;;;;;;;19.62;46.65;99846.84;2083167;28;19978;-68
2021/12/11 04:29:41;;;;;;;;;;;;;;;19.60;46.75;99846.16;2083896;28;19972;-68
2021/12/11 04:30:42;;;;;;;;;;;;;;;19.61;46.74;99845.13;2083308;28;19926;-68
2021/12/11 04:31:43;;;;;;;;;;;;;;;19.62;46.66;99852.31;2082185;28;20394;-68
2021/12/11 04:32:44;;;;;;;;;;;;;;;19.60;46.78;99846.16;2079472;28;19924;-68
2021/12/11 04:33:46;;;;;;;;;;;;;;;19.60;46.81;99848.88;2082765;28;19921;-68
2021/12/11 04:34:46;;;;;;;;;;;;;;;19.59;46.73;99844.41;2084007;28;20415;-68
2021/12/11 04:35:47;;;;;;;;;;;;;;;19.60;46.78;99850.72;2080619;28;20468;-68
2021/12/11 04:37:01;;;;;;;;;;;;;;;19.59;46.73;99858.09;2083513;28;20406;-68
2021/12/11 04:38:03;;;;;;;;;;;;;;;19.59;46.84;99851.75;2082605;28;19917;-68
2021/12/11 04:39:06;;;;;;;;;;;;;;;19.59;46.81;99854.50;2079157;28;19925;-68
2021/12/11 04:40:09;;;;;;;;;;;;;;;19.58;46.88;99855.53;2080348;28;19998;-68
2021/12/11 04:41:15;;;;;;;;;;;;;;;19.58;46.86;99855.53;2084525;28;20670;-68
2021/12/11 04:43:33;;;;;;;;;;;;;;;19.56;46.88;99850.19;2083188;28;19925;-68
2021/12/11 04:44:38;;;;;;;;;;;;;;;19.56;46.97;99847.47;2084888;28;19978;-68
2021/12/11 04:45:42;;;;;;;;;;;;;;;19.56;46.89;99847.47;2085713;28;19978;-68
2021/12/11 04:46:43;;;;;;;;;;;;;;;19.56;46.96;99844.72;2084890;28;19924;-68
2021/12/11 04:47:56;;;;;;;;;;;;;;;19.56;46.89;99850.19;2085581;28;19924;-68
2021/12/11 04:49:04;;;;;;;;;;;;;;;19.55;46.91;99845.75;2083710;28;19970;-68
2021/12/11 04:50:12;;;;;;;;;;;;;;;19.55;46.95;99851.22;2082786;28;20679;-68
2021/12/11 04:52:31;;;;;;;;;;;;;;;19.54;46.97;99856.84;2084349;28;20074;-68
2021/12/11 05:07:03;;;;;;;;;;;;;;;19.52;46.99;99883.47;2072138;28;20418;-68
2021/12/11 05:10:22;;;;;;;;;;;;;;;19.50;46.97;99886.41;2092638;28;19920;-68
2021/12/11 05:11:34;;;;;;;;;;;;;;;19.49;46.94;99887.38;2092759;28;19920;-68
2021/12/11 05:12:35;;;;;;;;;;;;;;;19.49;46.94;99890.13;2089270;28;19924;-68
2021/12/11 05:13:36;;;;;;;;;;;;;;;19.49;46.84;99890.13;2092856;28;20755;-68
2021/12/11 05:14:36;;;;;;;;;;;;;;;19.48;47.01;99893.88;2083577;28;20322;-68
2021/12/11 05:15:39;;;;;;;;;;;;;;;19.48;47.18;99897.47;2083318;28;20462;-68
2021/12/11 05:16:40;;;;;;;;;;;;;;;19.48;47.00;99893.88;2092077;28;20018;-68
2021/12/11 05:17:41;;;;;;;;;;;;;;;19.47;47.02;99893.00;2093977;28;20529;-68
2021/12/11 05:18:43;;;;;;;;;;;;;;;19.47;47.06;99897.63;2094267;28;20818;-69
2021/12/11 05:19:45;;;;;;;;;;;;;;;19.46;47.08;99902.22;2092900;28;19920;-68
2021/12/11 05:20:46;;;;;;;;;;;;;;;19.46;47.02;99898.66;2094028;28;19920;-68
2021/12/11 05:21:47;;;;;;;;;;;;;;;19.46;47.09;99904.13;2093027;28;19981;-68
2021/12/11 05:22:47;;;;;;;;;;;;;;;19.46;47.00;99904.13;2084140;28;20017;-68
2021/12/11 05:23:49;;;;;;;;;;;;;;;19.45;47.05;99905.13;2084767;28;20042;-68
2021/12/11 05:24:51;;;;;;;;;;;;;;;19.44;47.05;99915.19;2093090;28;19920;-68
2021/12/11 05:25:52;;;;;;;;;;;;;;;19.44;47.11;99911.59;2093575;28;19916;-68
2021/12/11 05:26:53;;;;;;;;;;;;;;;19.44;47.11;99908.88;2094056;28;19913;-68
2021/12/11 05:27:53;;;;;;;;;;;;;;;19.44;47.25;99908.88;2091325;28;19935;-68
2021/12/11 05:28:54;;;;;;;;;;;;;;;19.43;47.21;99915.38;2094988;28;19908;-68
2021/12/11 05:29:54;;;;;;;;;;;;;;;19.42;47.23;99910.91;2092756;28;19924;-68
2021/12/11 05:30:56;;;;;;;;;;;;;;;19.41;47.13;99917.41;2093140;28;19970;-67
2021/12/11 05:31:57;;;;;;;;;;;;;;;19.41;47.17;99917.41;2092770;28;19922;-68
2021/12/11 05:32:59;;;;;;;;;;;;;;;19.40;47.26;99918.41;2090364;28;20465;-68
2021/12/11 05:33:59;;;;;;;;;;;;;;;19.40;47.20;99907.47;2091361;28;20433;-68
2021/12/11 05:34:59;;;;;;;;;;;;;;;19.39;47.24;99922.16;2093315;28;19981;-68
2021/12/11 05:36:00;;;;;;;;;;;;;;;19.39;47.28;99916.69;2091803;28;19927;-69
2021/12/11 05:37:01;;;;;;;;;;;;;;;19.39;47.16;99924.88;2093609;28;20327;-68
2021/12/11 05:38:02;;;;;;;;;;;;;;;19.39;47.28;99927.63;2092474;28;19912;-68
2021/12/11 05:39:08;;;;;;;;;;;;;;;19.39;47.17;99927.63;2092431;28;19974;-68
2021/12/11 05:40:08;;;;;;;;;;;;;;;19.39;47.21;99927.63;2094477;28;20680;-68
2021/12/11 05:41:10;;;;;;;;;;;;;;;19.39;47.21;99924.88;2092526;28;20455;-68
2021/12/11 05:42:10;;;;;;;;;;;;;;;19.37;47.25;99927.75;2091269;28;19920;-68
2021/12/11 05:43:11;;;;;;;;;;;;;;;19.37;47.26;99925.03;2092050;28;19916;-68
2021/12/11 05:44:11;;;;;;;;;;;;;;;19.36;47.28;99925.22;2092242;28;20401;-68
2021/12/11 05:45:12;;;;;;;;;;;;;;;19.36;47.28;99922.47;2093510;28;19916;-68
2021/12/11 05:46:13;;;;;;;;;;;;;;;19.37;47.25;99929.66;2091590;28;19927;-68
2021/12/11 05:47:16;;;;;;;;;;;;;;;19.36;47.36;99926.06;2095693;28;19927;-68
2021/12/11 05:48:17;;;;;;;;;;;;;;;19.34;47.19;99924.50;2088156;28;19947;-68
2021/12/11 05:49:17;;;;;;;;;;;;;;;19.34;47.20;99919.03;2082765;28;19936;-68
2021/12/11 05:50:29;;;;;;;;;;;;;;;19.34;47.34;99929.97;2082457;28;19959;-68
2021/12/11 05:51:36;;;;;;;;;;;;;;;19.33;47.47;99922.75;2081718;28;20123;-67